sensor_id;sensor_type;location;lat;lon;timestamp;pressure;altitude;pressure_sealevel;temperature;humidity
74708;BME280;63360;50.104;8.074;2023-12-20T00:01:02;97100.34;;;4.02;100.00
74708;BME280;63360;50.104;8.074;2023-12-20T00:03:29;97097.25;;;4.00;100.00
74708;BME280;63360;50.104;8.074;2023-12-20T00:06:07;97095.41;;;4.05;100.00
74708;BME280;63360;50.104;8.074;2023-12-20T00:08:33;97091.03;;;4.06;100.00
74708;BME280;63360;50.104;8.074;2023-12-20T00:11:00;97072.06;;;3.92;100.00
74708;BME280;63360;50.104;8.074;2023-12-20T00:13:26;97072.59;;;3.94;100.00
74708;BME280;63360;50.104;8.074;2023-12-20T00:15:52;97077.19;;;4.02;100.00
74708;BME280;63360;50.104;8.074;2023-12-20T00:18:19;97081.25;;;4.08;100.00
74708;BME280;63360;50.104;8.074;2023-12-20T00:20:45;97066.88;;;3.97;100.00
74708;BME280;63360;50.104;8.074;2023-12-20T00:23:12;97063.56;;;3.91;100.00
74708;BME280;63360;50.104;8.074;2023-12-20T00:25:38;97054.84;;;3.87;100.00
74708;BME280;63360;50.104;8.074;2023-12-20T00:28:04;97064.09;;;3.93;100.00
74708;BME280;63360;50.104;8.074;2023-12-20T00:30:31;97071.81;;;3.93;100.00
74708;BME280;63360;50.104;8.074;2023-12-20T00:32:57;97065.91;;;3.88;100.00
74708;BME280;63360;50.104;8.074;2023-12-20T00:35:24;97066.16;;;3.86;100.00
74708;BME280;63360;50.104;8.074;2023-12-20T00:37:50;97069.50;;;3.87;100.00
74708;BME280;63360;50.104;8.074;2023-12-20T00:40:16;97070.03;;;3.84;100.00
74708;BME280;63360;50.104;8.074;2023-12-20T00:42:43;97067.72;;;3.87;100.00
74708;BME280;63360;50.104;8.074;2023-12-20T00:45:10;97063.84;;;3.90;100.00
74708;BME280;63360;50.104;8.074;2023-12-20T00:47:36;97060.75;;;3.88;100.00
74708;BME280;63360;50.104;8.074;2023-12-20T00:50:02;97068.47;;;3.88;100.00
74708;BME280;63360;50.104;8.074;2023-12-20T00:52:29;97054.09;;;3.82;100.00
74708;BME280;63360;50.104;8.074;2023-12-20T00:54:55;97061.81;;;3.82;100.00
74708;BME280;63360;50.104;8.074;2023-12-20T00:57:22;97062.28;;;3.89;100.00
74708;BME280;63360;50.104;8.074;2023-12-20T00:59:48;97040.47;;;3.76;100.00
74708;BME280;63360;50.104;8.074;2023-12-20T01:02:15;97059.50;;;3.85;100.00
74708;BME280;63360;50.104;8.074;2023-12-20T01:04:41;97049.47;;;3.79;100.00
74708;BME280;63360;50.104;8.074;2023-12-20T01:07:07;97037.63;;;3.83;100.00
74708;BME280;63360;50.104;8.074;2023-12-20T01:09:34;97042.25;;;3.86;100.00
74708;BME280;63360;50.104;8.074;2023-12-20T01:12:00;97045.31;;;3.93;100.00
74708;BME280;63360;50.104;8.074;2023-12-20T01:14:27;97045.81;;;3.90;100.00
74708;BME280;63360;50.104;8.074;2023-12-20T01:16:53;97050.97;;;3.90;100.00
74708;BME280;63360;50.104;8.074;2023-12-20T01:19:20;97045.31;;;3.88;100.00
74708;BME280;63360;50.104;8.074;2023-12-20T01:21:46;97048.94;;;3.87;100.00
74708;BME280;63360;50.104;8.074;2023-12-20T01:24:13;97049.94;;;3.96;100.00
74708;BME280;63360;50.104;8.074;2023-12-20T01:26:39;97043.47;;;3.98;100.00
74708;BME280;63360;50.104;8.074;2023-12-20T01:29:06;97036.56;;;3.94;100.00
74708;BME280;63360;50.104;8.074;2023-12-20T01:31:32;97039.91;;;3.89;100.00
74708;BME280;63360;50.104;8.074;2023-12-20T01:33:58;97043.22;;;3.95;100.00
74708;BME280;63360;50.104;8.074;2023-12-20T01:36:25;97043.97;;;4.00;100.00
74708;BME280;63360;50.104;8.074;2023-12-20T01:38:51;97030.09;;;3.91;100.00
74708;BME280;63360;50.104;8.074;2023-12-20T01:41:18;97057.88;;;4.04;100.00
74708;BME280;63360;50.104;8.074;2023-12-20T01:43:44;97070.75;;;3.94;100.00
74708;BME280;63360;50.104;8.074;2023-12-20T01:46:17;97066.69;;;3.88;100.00
74708;BME280;63360;50.104;8.074;2023-12-20T01:48:43;97060.25;;;3.91;100.00
74708;BME280;63360;50.104;8.074;2023-12-20T01:51:10;97055.53;;;4.03;100.00
74708;BME280;63360;50.104;8.074;2023-12-20T01:53:38;97065.88;;;3.98;100.00
74708;BME280;63360;50.104;8.074;2023-12-20T01:56:06;97069.97;;;4.04;100.00
74708;BME280;63360;50.104;8.074;2023-12-20T01:58:33;97052.19;;;4.02;100.00
74708;BME280;63360;50.104;8.074;2023-12-20T02:00:59;97066.31;;;4.10;100.00
74708;BME280;63360;50.104;8.074;2023-12-20T02:03:26;97059.63;;;4.09;100.00
74708;BME280;63360;50.104;8.074;2023-12-20T02:05:52;97055.50;;;4.08;100.00
74708;BME280;63360;50.104;8.074;2023-12-20T02:08:19;97053.25;;;4.01;100.00
74708;BME280;63360;50.104;8.074;2023-12-20T02:10:45;97045.31;;;3.93;100.00
74708;BME280;63360;50.104;8.074;2023-12-20T02:13:12;97057.38;;;3.97;100.00
74708;BME280;63360;50.104;8.074;2023-12-20T02:15:38;97049.84;;;4.11;100.00
74708;BME280;63360;50.104;8.074;2023-12-20T02:18:05;97052.72;;;4.04;100.00
74708;BME280;63360;50.104;8.074;2023-12-20T02:20:32;97038.53;;;4.07;100.00
74708;BME280;63360;50.104;8.074;2023-12-20T02:22:58;97039.34;;;3.97;100.00
74708;BME280;63360;50.104;8.074;2023-12-20T02:25:24;97038.56;;;3.97;100.00
74708;BME280;63360;50.104;8.074;2023-12-20T02:27:51;97044.28;;;3.94;100.00
74708;BME280;63360;50.104;8.074;2023-12-20T02:30:18;97051.13;;;4.08;100.00
74708;BME280;63360;50.104;8.074;2023-12-20T02:32:44;97041.94;;;3.97;100.00
74708;BME280;63360;50.104;8.074;2023-12-20T02:35:11;97049.63;;;4.02;100.00
74708;BME280;63360;50.104;8.074;2023-12-20T02:37:37;97065.56;;;4.09;100.00
74708;BME280;63360;50.104;8.074;2023-12-20T02:40:04;97047.09;;;3.92;100.00
74708;BME280;63360;50.104;8.074;2023-12-20T02:42:30;97052.44;;;4.06;100.00
74708;BME280;63360;50.104;8.074;2023-12-20T02:44:57;97063.50;;;4.06;100.00
74708;BME280;63360;50.104;8.074;2023-12-20T02:47:23;97070.19;;;4.07;100.00
74708;BME280;63360;50.104;8.074;2023-12-20T02:49:49;97064.22;;;4.17;100.00
74708;BME280;63360;50.104;8.074;2023-12-20T02:52:16;97054.75;;;4.07;100.00
74708;BME280;63360;50.104;8.074;2023-12-20T02:54:42;97058.13;;;4.03;100.00
74708;BME280;63360;50.104;8.074;2023-12-20T02:57:09;97073.50;;;4.13;100.00
74708;BME280;63360;50.104;8.074;2023-12-20T02:59:35;97058.88;;;4.03;100.00
74708;BME280;63360;50.104;8.074;2023-12-20T03:02:02;97072.25;;;4.05;100.00
74708;BME280;63360;50.104;8.074;2023-12-20T03:04:28;97063.50;;;4.06;100.00
74708;BME280;63360;50.104;8.074;2023-12-20T03:06:55;97074.31;;;4.08;100.00
74708;BME280;63360;50.104;8.074;2023-12-20T03:09:21;97067.09;;;4.05;100.00
74708;BME280;63360;50.104;8.074;2023-12-20T03:11:47;97058.13;;;4.03;100.00
74708;BME280;63360;50.104;8.074;2023-12-20T03:14:14;97049.06;;;4.10;100.00
74708;BME280;63360;50.104;8.074;2023-12-20T03:16:40;97071.19;;;4.11;100.00
74708;BME280;63360;50.104;8.074;2023-12-20T03:19:06;97079.44;;;4.13;100.00
74708;BME280;63360;50.104;8.074;2023-12-20T03:21:33;97088.91;;;4.23;100.00
74708;BME280;63360;50.104;8.074;2023-12-20T03:23:59;97079.13;;;4.25;100.00
74708;BME280;63360;50.104;8.074;2023-12-20T03:26:26;97088.13;;;4.27;100.00
74708;BME280;63360;50.104;8.074;2023-12-20T03:28:52;97080.91;;;4.24;100.00
74708;BME280;63360;50.104;8.074;2023-12-20T03:31:18;97087.63;;;4.25;100.00
74708;BME280;63360;50.104;8.074;2023-12-20T03:33:46;97095.31;;;4.31;100.00
74708;BME280;63360;50.104;8.074;2023-12-20T03:36:12;97083.91;;;4.37;100.00
74708;BME280;63360;50.104;8.074;2023-12-20T03:38:38;97089.63;;;4.28;100.00
74708;BME280;63360;50.104;8.074;2023-12-20T03:41:05;97098.88;;;4.35;100.00
74708;BME280;63360;50.104;8.074;2023-12-20T03:43:31;97092.44;;;4.37;100.00
74708;BME280;63360;50.104;8.074;2023-12-20T03:45:57;97101.16;;;4.41;100.00
74708;BME280;63360;50.104;8.074;2023-12-20T03:48:25;97094.53;;;4.30;100.00
74708;BME280;63360;50.104;8.074;2023-12-20T03:50:51;97102.16;;;4.45;100.00
74708;BME280;63360;50.104;8.074;2023-12-20T03:53:18;97102.22;;;4.35;100.00
74708;BME280;63360;50.104;8.074;2023-12-20T03:55:44;97110.16;;;4.44;100.00
74708;BME280;63360;50.104;8.074;2023-12-20T03:58:10;97090.66;;;4.33;100.00
74708;BME280;63360;50.104;8.074;2023-12-20T04:00:37;97098.66;;;4.31;100.00
74708;BME280;63360;50.104;8.074;2023-12-20T04:03:04;97114.81;;;4.42;100.00
74708;BME280;63360;50.104;8.074;2023-12-20T04:05:30;97114.03;;;4.41;100.00
74708;BME280;63360;50.104;8.074;2023-12-20T04:07:57;97104.56;;;4.32;100.00
74708;BME280;63360;50.104;8.074;2023-12-20T04:10:23;97115.09;;;4.35;100.00
74708;BME280;63360;50.104;8.074;2023-12-20T04:12:49;97116.41;;;4.33;100.00
74708;BME280;63360;50.104;8.074;2023-12-20T04:15:16;97115.59;;;4.37;100.00
74708;BME280;63360;50.104;8.074;2023-12-20T04:17:42;97121.53;;;4.38;100.00
74708;BME280;63360;50.104;8.074;2023-12-20T04:20:10;97115.13;;;4.30;100.00
74708;BME280;63360;50.104;8.074;2023-12-20T04:22:37;97135.19;;;4.33;100.00
74708;BME280;63360;50.104;8.074;2023-12-20T04:25:03;97126.72;;;4.27;100.00
74708;BME280;63360;50.104;8.074;2023-12-20T04:27:30;97131.16;;;4.17;100.00
74708;BME280;63360;50.104;8.074;2023-12-20T04:29:56;97135.53;;;4.16;100.00
74708;BME280;63360;50.104;8.074;2023-12-20T04:32:22;97134.31;;;3.99;100.00
74708;BME280;63360;50.104;8.074;2023-12-20T04:34:49;97136.13;;;3.93;100.00
74708;BME280;63360;50.104;8.074;2023-12-20T04:37:15;97153.13;;;3.89;100.00
74708;BME280;63360;50.104;8.074;2023-12-20T04:39:42;97152.66;;;3.72;100.00
74708;BME280;63360;50.104;8.074;2023-12-20T04:42:08;97153.19;;;3.69;100.00
74708;BME280;63360;50.104;8.074;2023-12-20T04:44:35;97151.66;;;3.58;100.00
74708;BME280;63360;50.104;8.074;2023-12-20T04:47:01;97141.91;;;3.45;100.00
74708;BME280;63360;50.104;8.074;2023-12-20T04:49:27;97149.34;;;3.36;100.00
74708;BME280;63360;50.104;8.074;2023-12-20T04:51:54;97150.91;;;3.32;100.00
74708;BME280;63360;50.104;8.074;2023-12-20T04:54:21;97152.44;;;3.23;100.00
74708;BME280;63360;50.104;8.074;2023-12-20T04:56:48;97161.97;;;3.18;100.00
74708;BME280;63360;50.104;8.074;2023-12-20T04:59:14;97166.09;;;3.19;100.00
74708;BME280;63360;50.104;8.074;2023-12-20T05:01:41;97170.97;;;3.10;100.00
74708;BME280;63360;50.104;8.074;2023-12-20T05:04:07;97161.47;;;3.05;100.00
74708;BME280;63360;50.104;8.074;2023-12-20T05:06:34;97161.97;;;3.08;100.00
74708;BME280;63360;50.104;8.074;2023-12-20T05:09:00;97156.56;;;2.99;100.00
74708;BME280;63360;50.104;8.074;2023-12-20T05:11:27;97172.50;;;3.06;100.00
74708;BME280;63360;50.104;8.074;2023-12-20T05:13:53;97170.69;;;3.01;100.00
74708;BME280;63360;50.104;8.074;2023-12-20T05:16:19;97163.75;;;3.07;100.00
74708;BME280;63360;50.104;8.074;2023-12-20T05:18:48;97169.41;;;3.04;100.00
74708;BME280;63360;50.104;8.074;2023-12-20T05:21:16;97181.22;;;3.05;100.00
74708;BME280;63360;50.104;8.074;2023-12-20T05:23:42;97166.84;;;3.04;100.00
74708;BME280;63360;50.104;8.074;2023-12-20T05:26:09;97172.50;;;3.06;100.00
74708;BME280;63360;50.104;8.074;2023-12-20T05:28:35;97166.84;;;2.99;100.00
74708;BME280;63360;50.104;8.074;2023-12-20T05:31:02;97162.97;;;2.91;100.00
74708;BME280;63360;50.104;8.074;2023-12-20T05:33:28;97167.34;;;2.91;100.00
74708;BME280;63360;50.104;8.074;2023-12-20T05:35:55;97168.88;;;2.87;100.00
74708;BME280;63360;50.104;8.074;2023-12-20T05:38:21;97181.19;;;2.85;100.00
74708;BME280;63360;50.104;8.074;2023-12-20T05:40:47;97158.06;;;2.70;100.00
74708;BME280;63360;50.104;8.074;2023-12-20T05:43:14;97182.22;;;2.79;100.00
74708;BME280;63360;50.104;8.074;2023-12-20T05:45:40;97171.94;;;2.74;100.00
74708;BME280;63360;50.104;8.074;2023-12-20T05:48:07;97180.16;;;2.81;100.00
74708;BME280;63360;50.104;8.074;2023-12-20T05:50:33;97180.16;;;2.81;100.00
74708;BME280;63360;50.104;8.074;2023-12-20T05:53:01;97180.69;;;2.83;100.00
74708;BME280;63360;50.104;8.074;2023-12-20T05:55:27;97189.66;;;2.75;100.00
74708;BME280;63360;50.104;8.074;2023-12-20T05:57:53;97179.13;;;2.72;100.00
74708;BME280;63360;50.104;8.074;2023-12-20T06:00:20;97165.25;;;2.68;100.00
74708;BME280;63360;50.104;8.074;2023-12-20T06:02:46;97178.59;;;2.60;100.00
74708;BME280;63360;50.104;8.074;2023-12-20T06:05:13;97184.50;;;2.60;100.00
74708;BME280;63360;50.104;8.074;2023-12-20T06:07:39;97190.91;;;2.58;100.00
74708;BME280;63360;50.104;8.074;2023-12-20T06:10:06;97199.34;;;2.53;100.00
74708;BME280;63360;50.104;8.074;2023-12-20T06:12:32;97185.19;;;2.35;100.00
74708;BME280;63360;50.104;8.074;2023-12-20T06:15:02;97192.09;;;2.35;100.00
74708;BME280;63360;50.104;8.074;2023-12-20T06:17:28;97195.19;;;2.37;100.00
74708;BME280;63360;50.104;8.074;2023-12-20T06:19:57;97204.69;;;2.36;100.00
74708;BME280;63360;50.104;8.074;2023-12-20T06:22:23;97200.59;;;2.35;100.00
74708;BME280;63360;50.104;8.074;2023-12-20T06:24:50;97190.28;;;2.30;100.00
74708;BME280;63360;50.104;8.074;2023-12-20T06:27:16;97170.72;;;2.09;100.00
74708;BME280;63360;50.104;8.074;2023-12-20T06:29:43;97171.25;;;2.16;100.00
74708;BME280;63360;50.104;8.074;2023-12-20T06:32:11;97177.94;;;2.22;100.00
74708;BME280;63360;50.104;8.074;2023-12-20T06:34:37;97172.22;;;2.10;100.00
74708;BME280;63360;50.104;8.074;2023-12-20T06:37:04;97179.16;;;2.05;100.00
74708;BME280;63360;50.104;8.074;2023-12-20T06:39:31;97194.00;;;2.03;100.00
74708;BME280;63360;50.104;8.074;2023-12-20T06:41:57;97199.13;;;2.03;100.00
74708;BME280;63360;50.104;8.074;2023-12-20T06:44:24;97191.19;;;1.99;100.00
74708;BME280;63360;50.104;8.074;2023-12-20T06:46:50;97194.28;;;2.01;100.00
74708;BME280;63360;50.104;8.074;2023-12-20T06:49:16;97191.41;;;1.98;100.00
74708;BME280;63360;50.104;8.074;2023-12-20T06:51:44;97187.81;;;1.94;100.00
74708;BME280;63360;50.104;8.074;2023-12-20T06:54:10;97189.63;;;1.93;100.00
74708;BME280;63360;50.104;8.074;2023-12-20T06:56:36;97191.38;;;1.88;100.00
74708;BME280;63360;50.104;8.074;2023-12-20T06:59:03;97209.88;;;1.95;100.00
74708;BME280;63360;50.104;8.074;2023-12-20T07:01:29;97213.19;;;1.90;100.00
74708;BME280;63360;50.104;8.074;2023-12-20T07:03:55;97197.56;;;1.92;100.00
74708;BME280;63360;50.104;8.074;2023-12-20T07:06:22;97194.75;;;1.93;100.00
74708;BME280;63360;50.104;8.074;2023-12-20T07:08:52;97206.84;;;2.03;100.00
74708;BME280;63360;50.104;8.074;2023-12-20T07:11:18;97205.91;;;2.19;100.00
74708;BME280;63360;50.104;8.074;2023-12-20T07:13:45;97213.88;;;2.22;100.00
74708;BME280;63360;50.104;8.074;2023-12-20T07:16:12;97210.78;;;2.20;100.00
74708;BME280;63360;50.104;8.074;2023-12-20T07:18:39;97231.84;;;2.27;100.00
74708;BME280;63360;50.104;8.074;2023-12-20T07:21:05;97233.44;;;2.33;100.00
74708;BME280;63360;50.104;8.074;2023-12-20T07:23:34;97228.53;;;2.32;100.00
74708;BME280;63360;50.104;8.074;2023-12-20T07:26:00;97227.03;;;2.36;100.00
74708;BME280;63360;50.104;8.074;2023-12-20T07:28:26;97218.81;;;2.34;100.00
74708;BME280;63360;50.104;8.074;2023-12-20T07:30:53;97226.50;;;2.34;100.00
74708;BME280;63360;50.104;8.074;2023-12-20T07:33:19;97236.78;;;2.39;100.00
74708;BME280;63360;50.104;8.074;2023-12-20T07:35:46;97239.13;;;2.45;100.00
74708;BME280;63360;50.104;8.074;2023-12-20T07:38:12;97239.13;;;2.45;100.00
74708;BME280;63360;50.104;8.074;2023-12-20T07:40:39;97237.84;;;2.48;100.00
74708;BME280;63360;50.104;8.074;2023-12-20T07:43:05;97235.53;;;2.41;100.00
74708;BME280;63360;50.104;8.074;2023-12-20T07:45:31;97241.44;;;2.47;100.00
74708;BME280;63360;50.104;8.074;2023-12-20T07:47:58;97249.69;;;2.54;100.00
74708;BME280;63360;50.104;8.074;2023-12-20T07:50:24;97255.34;;;2.61;100.00
74708;BME280;63360;50.104;8.074;2023-12-20T07:52:51;97256.91;;;2.57;100.00
74708;BME280;63360;50.104;8.074;2023-12-20T07:55:17;97254.63;;;2.66;100.00
74708;BME280;63360;50.104;8.074;2023-12-20T07:57:44;97253.56;;;2.62;100.00
74708;BME280;63360;50.104;8.074;2023-12-20T08:00:11;97249.47;;;2.66;100.00
74708;BME280;63360;50.104;8.074;2023-12-20T08:02:37;97261.03;;;2.68;100.00
74708;BME280;63360;50.104;8.074;2023-12-20T08:05:04;97243.56;;;2.65;100.00
74708;BME280;63360;50.104;8.074;2023-12-20T08:07:30;97244.34;;;2.66;100.00
74708;BME280;63360;50.104;8.074;2023-12-20T08:09:57;97255.16;;;2.83;100.00
74708;BME280;63360;50.104;8.074;2023-12-20T08:12:24;97247.94;;;2.75;100.00
74708;BME280;63360;50.104;8.074;2023-12-20T08:14:54;97251.31;;;2.85;100.00
74708;BME280;63360;50.104;8.074;2023-12-20T08:17:20;97255.44;;;2.76;100.00
74708;BME280;63360;50.104;8.074;2023-12-20T08:19:47;97249.00;;;2.74;100.00
74708;BME280;63360;50.104;8.074;2023-12-20T08:22:13;97261.09;;;2.83;100.00
74708;BME280;63360;50.104;8.074;2023-12-20T08:24:39;97251.31;;;2.85;100.00
74708;BME280;63360;50.104;8.074;2023-12-20T08:27:06;97265.22;;;2.89;100.00
74708;BME280;63360;50.104;8.074;2023-12-20T08:29:32;97261.09;;;2.93;100.00
74708;BME280;63360;50.104;8.074;2023-12-20T08:31:59;97267.81;;;2.99;100.00
74708;BME280;63360;50.104;8.074;2023-12-20T08:34:25;97262.94;;;2.98;100.00
74708;BME280;63360;50.104;8.074;2023-12-20T08:36:52;97260.88;;;3.05;100.00
74708;BME280;63360;50.104;8.074;2023-12-20T08:39:19;97272.72;;;3.11;100.00
74708;BME280;63360;50.104;8.074;2023-12-20T08:41:45;97277.59;;;3.13;100.00
74708;BME280;63360;50.104;8.074;2023-12-20T08:44:11;97281.72;;;3.14;100.00
74708;BME280;63360;50.104;8.074;2023-12-20T08:46:38;97263.97;;;3.07;100.00
74708;BME280;63360;50.104;8.074;2023-12-20T08:49:04;97276.09;;;3.17;100.00
74708;BME280;63360;50.104;8.074;2023-12-20T08:51:31;97275.03;;;3.18;100.00
74708;BME280;63360;50.104;8.074;2023-12-20T08:53:58;97264.00;;;3.22;100.00
74708;BME280;63360;50.104;8.074;2023-12-20T08:56:24;97267.88;;;3.30;100.00
74708;BME280;63360;50.104;8.074;2023-12-20T08:58:50;97269.41;;;3.21;100.00
74708;BME280;63360;50.104;8.074;2023-12-20T09:01:17;97271.47;;;3.34;100.00
74708;BME280;63360;50.104;8.074;2023-12-20T09:03:43;97269.91;;;3.33;100.00
74708;BME280;63360;50.104;8.074;2023-12-20T09:06:10;97271.75;;;3.32;100.00
74708;BME280;63360;50.104;8.074;2023-12-20T09:08:36;97283.81;;;3.37;100.00
74708;BME280;63360;50.104;8.074;2023-12-20T09:11:03;97277.91;;;3.36;100.00
74708;BME280;63360;50.104;8.074;2023-12-20T09:13:30;97268.91;;;3.44;100.00
74708;BME280;63360;50.104;8.074;2023-12-20T09:15:58;97255.53;;;3.47;100.00
74708;BME280;63360;50.104;8.074;2023-12-20T09:18:24;97259.66;;;3.53;100.00
74708;BME280;63360;50.104;8.074;2023-12-20T09:20:51;97259.41;;;3.49;100.00
74708;BME280;63360;50.104;8.074;2023-12-20T09:23:17;97265.31;;;3.60;100.00
74708;BME280;63360;50.104;8.074;2023-12-20T09:25:44;97256.06;;;3.64;100.00
74708;BME280;63360;50.104;8.074;2023-12-20T09:28:10;97253.00;;;3.67;100.00
74708;BME280;63360;50.104;8.074;2023-12-20T09:30:37;97259.66;;;3.68;100.00
74708;BME280;63360;50.104;8.074;2023-12-20T09:33:06;97265.84;;;3.67;100.00
74708;BME280;63360;50.104;8.074;2023-12-20T09:35:33;97272.00;;;3.71;100.00
74708;BME280;63360;50.104;8.074;2023-12-20T09:38:00;97276.63;;;3.79;100.00
74708;BME280;63360;50.104;8.074;2023-12-20T09:40:27;97272.53;;;3.93;100.00
74708;BME280;63360;50.104;8.074;2023-12-20T09:43:03;97269.97;;;3.88;100.00
74708;BME280;63360;50.104;8.074;2023-12-20T09:45:31;97268.13;;;3.84;100.00
74708;BME280;63360;50.104;8.074;2023-12-20T09:47:58;97268.66;;;3.86;100.00
74708;BME280;63360;50.104;8.074;2023-12-20T09:50:25;97271.47;;;3.99;100.00
74708;BME280;63360;50.104;8.074;2023-12-20T09:52:53;97267.63;;;4.07;100.00
74708;BME280;63360;50.104;8.074;2023-12-20T09:55:20;97283.25;;;4.20;100.00
74708;BME280;63360;50.104;8.074;2023-12-20T09:57:48;97289.19;;;4.26;100.00
74708;BME280;63360;50.104;8.074;2023-12-20T10:00:16;97294.31;;;4.26;100.00
74708;BME280;63360;50.104;8.074;2023-12-20T10:03:03;97302.28;;;4.40;100.00
74708;BME280;63360;50.104;8.074;2023-12-20T10:05:32;97293.31;;;4.22;100.00
74708;BME280;63360;50.104;8.074;2023-12-20T10:08:00;97299.47;;;4.36;100.00
74708;BME280;63360;50.104;8.074;2023-12-20T10:10:28;97289.41;;;4.40;100.00
74708;BME280;63360;50.104;8.074;2023-12-20T10:13:11;97288.13;;;4.42;100.00
74708;BME280;63360;50.104;8.074;2023-12-20T10:15:39;97279.88;;;4.40;100.00
74708;BME280;63360;50.104;8.074;2023-12-20T10:18:06;97291.72;;;4.46;100.00
74708;BME280;63360;50.104;8.074;2023-12-20T10:20:33;97279.63;;;4.47;100.00
74708;BME280;63360;50.104;8.074;2023-12-20T10:23:00;97266.19;;;4.55;100.00
74708;BME280;63360;50.104;8.074;2023-12-20T10:25:27;97271.09;;;4.51;100.00
74708;BME280;63360;50.104;8.074;2023-12-20T10:28:15;97246.38;;;4.50;100.00
74708;BME280;63360;50.104;8.074;2023-12-20T10:30:45;97248.66;;;4.57;100.00
74708;BME280;63360;50.104;8.074;2023-12-20T10:33:11;97250.44;;;4.61;100.00
74708;BME280;63360;50.104;8.074;2023-12-20T10:35:39;97252.72;;;4.73;100.00
74708;BME280;63360;50.104;8.074;2023-12-20T10:38:11;97235.50;;;4.63;100.00
74708;BME280;63360;50.104;8.074;2023-12-20T10:40:39;97238.56;;;4.70;100.00
74708;BME280;63360;50.104;8.074;2023-12-20T10:43:05;97240.88;;;4.72;100.00
74708;BME280;63360;50.104;8.074;2023-12-20T10:45:33;97230.13;;;4.60;100.00
74708;BME280;63360;50.104;8.074;2023-12-20T10:48:01;97232.19;;;4.53;100.00
74708;BME280;63360;50.104;8.074;2023-12-20T10:50:29;97216.53;;;4.44;100.00
74708;BME280;63360;50.104;8.074;2023-12-20T10:52:57;97228.63;;;4.44;100.00
74708;BME280;63360;50.104;8.074;2023-12-20T10:55:24;97232.94;;;4.58;100.00
74708;BME280;63360;50.104;8.074;2023-12-20T10:57:51;97222.09;;;4.66;100.00
74708;BME280;63360;50.104;8.074;2023-12-20T11:00:19;97239.06;;;4.72;100.00
74708;BME280;63360;50.104;8.074;2023-12-20T11:02:49;97235.22;;;4.70;100.00
74708;BME280;63360;50.104;8.074;2023-12-20T11:05:43;97235.94;;;4.80;100.00
74708;BME280;63360;50.104;8.074;2023-12-20T11:08:22;97240.63;;;4.73;100.00
74708;BME280;63360;50.104;8.074;2023-12-20T11:11:07;97246.47;;;4.89;100.00
74708;BME280;63360;50.104;8.074;2023-12-20T11:13:40;97234.34;;;4.89;100.00
74708;BME280;63360;50.104;8.074;2023-12-20T11:16:10;97232.34;;;4.76;100.00
74708;BME280;63360;50.104;8.074;2023-12-20T11:18:37;97244.69;;;4.79;100.00
74708;BME280;63360;50.104;8.074;2023-12-20T11:21:06;97233.38;;;4.75;100.00
74708;BME280;63360;50.104;8.074;2023-12-20T11:23:33;97239.31;;;4.76;100.00
74708;BME280;63360;50.104;8.074;2023-12-20T11:26:01;97244.78;;;4.64;100.00
74708;BME280;63360;50.104;8.074;2023-12-20T11:28:29;97231.44;;;4.52;100.00
74708;BME280;63360;50.104;8.074;2023-12-20T11:31:01;97227.00;;;4.58;100.00
74708;BME280;63360;50.104;8.074;2023-12-20T11:33:36;97217.59;;;4.33;100.00
74708;BME280;63360;50.104;8.074;2023-12-20T11:36:03;97218.06;;;4.45;100.00
74708;BME280;63360;50.104;8.074;2023-12-20T11:38:38;97219.38;;;4.38;100.00
74708;BME280;63360;50.104;8.074;2023-12-20T11:41:06;97221.19;;;4.37;100.00
74708;BME280;63360;50.104;8.074;2023-12-20T11:43:38;97204.22;;;4.26;100.00
74708;BME280;63360;50.104;8.074;2023-12-20T11:46:07;97219.34;;;4.48;100.00
74708;BME280;63360;50.104;8.074;2023-12-20T11:48:36;97198.78;;;4.38;100.00
74708;BME280;63360;50.104;8.074;2023-12-20T11:51:09;97204.91;;;4.52;100.00
74708;BME280;63360;50.104;8.074;2023-12-20T11:53:36;97203.56;;;4.59;100.00
74708;BME280;63360;50.104;8.074;2023-12-20T11:56:05;97194.75;;;4.75;100.00
74708;BME280;63360;50.104;8.074;2023-12-20T11:58:34;97191.06;;;4.86;100.00
74708;BME280;63360;50.104;8.074;2023-12-20T12:01:02;97191.31;;;4.85;100.00
74708;BME280;63360;50.104;8.074;2023-12-20T12:03:29;97180.25;;;4.84;100.00
74708;BME280;63360;50.104;8.074;2023-12-20T12:05:55;97187.47;;;4.82;100.00
74708;BME280;63360;50.104;8.074;2023-12-20T12:08:21;97153.47;;;4.80;100.00
74708;BME280;63360;50.104;8.074;2023-12-20T12:10:48;97170.41;;;4.92;100.00
74708;BME280;63360;50.104;8.074;2023-12-20T12:13:14;97176.59;;;4.90;100.00
74708;BME280;63360;50.104;8.074;2023-12-20T12:15:41;97171.97;;;4.87;100.00
74708;BME280;63360;50.104;8.074;2023-12-20T12:18:08;97172.31;;;4.76;100.00
74708;BME280;63360;50.104;8.074;2023-12-20T12:20:35;97185.22;;;4.76;100.00
74708;BME280;63360;50.104;8.074;2023-12-20T12:23:04;97183.41;;;4.71;100.00
74708;BME280;63360;50.104;8.074;2023-12-20T12:25:34;97176.69;;;4.75;100.00
74708;BME280;63360;50.104;8.074;2023-12-20T12:28:06;97184.69;;;4.79;100.00
74708;BME280;63360;50.104;8.074;2023-12-20T12:30:33;97174.72;;;4.62;100.00
74708;BME280;63360;50.104;8.074;2023-12-20T12:33:04;97177.75;;;4.69;100.00
74708;BME280;63360;50.104;8.074;2023-12-20T12:35:31;97187.25;;;4.79;100.00
74708;BME280;63360;50.104;8.074;2023-12-20T12:37:58;97173.06;;;4.76;100.00
74708;BME280;63360;50.104;8.074;2023-12-20T12:40:25;97172.84;;;4.73;100.00
74708;BME280;63360;50.104;8.074;2023-12-20T12:42:52;97164.81;;;4.79;100.00
74708;BME280;63360;50.104;8.074;2023-12-20T12:45:18;97155.00;;;4.86;100.00
74708;BME280;63360;50.104;8.074;2023-12-20T12:47:45;97143.91;;;4.86;100.00
74708;BME280;63360;50.104;8.074;2023-12-20T12:50:11;97138.34;;;5.08;100.00
74708;BME280;63360;50.104;8.074;2023-12-20T12:52:38;97137.56;;;5.07;100.00
74708;BME280;63360;50.104;8.074;2023-12-20T12:55:05;97143.22;;;5.09;100.00
74708;BME280;63360;50.104;8.074;2023-12-20T12:57:32;97135.28;;;5.01;100.00
74708;BME280;63360;50.104;8.074;2023-12-20T12:59:59;97127.34;;;4.97;100.00